sensor_id;sensor_type;location;lat;lon;timestamp;pressure;altitude;pressure_sealevel;temperature;humidity
5691;BME280;2870;42.680;23.364;2022-08-05T00:01:21;95290.41;;;21.01;73.91
5691;BME280;2870;42.680;23.364;2022-08-05T00:03:48;95287.31;;;20.97;73.48
5691;BME280;2870;42.680;23.364;2022-08-05T00:06:16;95297.16;;;20.94;73.06
5691;BME280;2870;42.680;23.364;2022-08-05T00:08:43;95295.44;;;20.89;73.45
5691;BME280;2870;42.680;23.364;2022-08-05T00:11:12;95286.16;;;20.88;73.78
5691;BME280;2870;42.680;23.364;2022-08-05T00:13:41;95284.25;;;20.93;73.61
5691;BME280;2870;42.680;23.364;2022-08-05T00:16:10;95276.50;;;20.82;74.32
5691;BME280;2870;42.680;23.364;2022-08-05T00:21:06;95273.06;;;20.72;75.29
5691;BME280;2870;42.680;23.364;2022-08-05T00:23:32;95279.00;;;20.76;75.08
5691;BME280;2870;42.680;23.364;2022-08-05T00:25:59;95279.22;;;20.80;74.42
5691;BME280;2870;42.680;23.364;2022-08-05T00:28:26;95280.50;;;20.77;75.83
5691;BME280;2870;42.680;23.364;2022-08-05T00:30:53;95267.13;;;20.68;76.28
5691;BME280;2870;42.680;23.364;2022-08-05T00:33:19;95281.16;;;20.63;76.33
5691;BME280;2870;42.680;23.364;2022-08-05T00:35:47;95273.84;;;20.60;76.13
5691;BME280;2870;42.680;23.364;2022-08-05T00:38:14;95272.13;;;20.55;75.98
5691;BME280;2870;42.680;23.364;2022-08-05T00:40:55;95275.38;;;20.50;75.85
5691;BME280;2870;42.680;23.364;2022-08-05T00:43:23;95279.22;;;20.54;75.62
5691;BME280;2870;42.680;23.364;2022-08-05T00:45:50;95273.03;;;20.46;73.90
5691;BME280;2870;42.680;23.364;2022-08-05T00:48:18;95274.00;;;20.39;72.83
5691;BME280;2870;42.680;23.364;2022-08-05T00:50:48;95273.78;;;20.35;74.26
5691;BME280;2870;42.680;23.364;2022-08-05T00:53:17;95272.66;;;20.40;74.67
5691;BME280;2870;42.680;23.364;2022-08-05T00:55:44;95282.56;;;20.39;75.23
5691;BME280;2870;42.680;23.364;2022-08-05T00:58:12;95281.19;;;20.40;74.35
5691;BME280;2870;42.680;23.364;2022-08-05T01:00:41;95270.31;;;20.48;73.45
5691;BME280;2870;42.680;23.364;2022-08-05T01:03:09;95270.31;;;20.25;74.92
5691;BME280;2870;42.680;23.364;2022-08-05T01:05:36;95276.00;;;20.25;75.17
5691;BME280;2870;42.680;23.364;2022-08-05T01:08:05;95279.13;;;20.29;74.30
5691;BME280;2870;42.680;23.364;2022-08-05T01:10:37;95280.97;;;20.24;74.05
5691;BME280;2870;42.680;23.364;2022-08-05T01:13:12;95283.25;;;20.14;74.39
5691;BME280;2870;42.680;23.364;2022-08-05T01:15:44;95286.59;;;20.10;75.09
5691;BME280;2870;42.680;23.364;2022-08-05T01:18:16;95281.66;;;19.99;75.28
5691;BME280;2870;42.680;23.364;2022-08-05T01:20:52;95276.78;;;20.02;76.08
5691;BME280;2870;42.680;23.364;2022-08-05T01:23:39;95283.47;;;20.06;76.05
5691;BME280;2870;42.680;23.364;2022-08-05T01:26:25;95280.88;;;20.10;73.66
5691;BME280;2870;42.680;23.364;2022-08-05T01:29:01;95288.94;;;20.14;72.52
5691;BME280;2870;42.680;23.364;2022-08-05T01:31:34;95278.16;;;20.12;74.16
5691;BME280;2870;42.680;23.364;2022-08-05T01:34:07;95284.13;;;19.93;73.87
5691;BME280;2870;42.680;23.364;2022-08-05T01:36:39;95285.34;;;19.90;74.58
5691;BME280;2870;42.680;23.364;2022-08-05T01:39:09;95282.75;;;19.94;74.35
5691;BME280;2870;42.680;23.364;2022-08-05T01:41:37;95290.94;;;19.88;74.29
5691;BME280;2870;42.680;23.364;2022-08-05T01:44:07;95291.19;;;19.92;74.27
5691;BME280;2870;42.680;23.364;2022-08-05T01:46:36;95290.81;;;19.86;73.14
5691;BME280;2870;42.680;23.364;2022-08-05T01:49:05;95293.03;;;19.76;70.90
5691;BME280;2870;42.680;23.364;2022-08-05T01:51:33;95290.94;;;19.88;70.75
5691;BME280;2870;42.680;23.364;2022-08-05T01:54:02;95288.69;;;19.98;69.38
5691;BME280;2870;42.680;23.364;2022-08-05T01:56:33;95287.22;;;19.97;69.95
5691;BME280;2870;42.680;23.364;2022-08-05T01:59:07;95287.22;;;19.97;71.20
5691;BME280;2870;42.680;23.364;2022-08-05T02:01:35;95294.75;;;20.04;69.17
5691;BME280;2870;42.680;23.364;2022-08-05T02:04:04;95296.13;;;20.03;68.60
5691;BME280;2870;42.680;23.364;2022-08-05T02:06:32;95292.66;;;19.93;69.90
5691;BME280;2870;42.680;23.364;2022-08-05T02:09:00;95282.28;;;19.86;70.29
5691;BME280;2870;42.680;23.364;2022-08-05T02:11:40;95292.31;;;19.75;71.84
5691;BME280;2870;42.680;23.364;2022-08-05T02:14:12;95289.56;;;19.66;71.72
5691;BME280;2870;42.680;23.364;2022-08-05T02:16:44;95287.31;;;19.52;71.78
5691;BME280;2870;42.680;23.364;2022-08-05T02:19:18;95283.59;;;19.50;72.17
5691;BME280;2870;42.680;23.364;2022-08-05T02:21:51;95283.59;;;19.50;73.96
5691;BME280;2870;42.680;23.364;2022-08-05T02:24:22;95287.41;;;19.43;74.73
5691;BME280;2870;42.680;23.364;2022-08-05T02:26:53;95284.56;;;19.31;75.03
5691;BME280;2870;42.680;23.364;2022-08-05T02:29:25;95283.72;;;19.40;74.65
5691;BME280;2870;42.680;23.364;2022-08-05T02:31:54;95286.78;;;19.44;75.16
5691;BME280;2870;42.680;23.364;2022-08-05T02:34:23;95282.47;;;19.43;74.71
5691;BME280;2870;42.680;23.364;2022-08-05T02:36:53;95287.28;;;19.29;74.92
5691;BME280;2870;42.680;23.364;2022-08-05T02:39:22;95269.47;;;19.28;74.80
5691;BME280;2870;42.680;23.364;2022-08-05T02:41:51;95270.72;;;19.37;75.92
5691;BME280;2870;42.680;23.364;2022-08-05T02:44:18;95281.25;;;19.35;75.89
5691;BME280;2870;42.680;23.364;2022-08-05T02:46:48;95276.16;;;19.33;76.12
5691;BME280;2870;42.680;23.364;2022-08-05T02:49:16;95250.41;;;19.19;75.94
5691;BME280;2870;42.680;23.364;2022-08-05T02:51:44;95277.25;;;19.28;76.12
5691;BME280;2870;42.680;23.364;2022-08-05T02:54:12;95273.16;;;19.19;78.05
5691;BME280;2870;42.680;23.364;2022-08-05T02:56:41;95273.91;;;19.20;77.54
5691;BME280;2870;42.680;23.364;2022-08-05T02:59:09;95275.13;;;19.17;77.31
5691;BME280;2870;42.680;23.364;2022-08-05T03:01:38;95278.84;;;19.19;78.16
5691;BME280;2870;42.680;23.364;2022-08-05T03:04:10;95279.09;;;19.12;76.63
5691;BME280;2870;42.680;23.364;2022-08-05T03:06:39;95277.00;;;19.12;78.19
5691;BME280;2870;42.680;23.364;2022-08-05T03:09:07;95282.31;;;19.18;80.13
5691;BME280;2870;42.680;23.364;2022-08-05T03:11:40;95278.94;;;19.10;80.24
5691;BME280;2870;42.680;23.364;2022-08-05T03:14:07;95277.16;;;19.38;76.70
5691;BME280;2870;42.680;23.364;2022-08-05T03:16:34;95279.88;;;19.36;76.06
5691;BME280;2870;42.680;23.364;2022-08-05T03:19:01;95292.34;;;19.19;76.22
5691;BME280;2870;42.680;23.364;2022-08-05T03:21:30;95286.47;;;19.05;77.92
5691;BME280;2870;42.680;23.364;2022-08-05T03:23:57;95290.94;;;19.08;76.81
5691;BME280;2870;42.680;23.364;2022-08-05T03:26:24;95297.38;;;19.09;76.80
5691;BME280;2870;42.680;23.364;2022-08-05T03:28:51;95292.38;;;18.97;77.72
5691;BME280;2870;42.680;23.364;2022-08-05T03:31:19;95285.19;;;18.85;77.09
5691;BME280;2870;42.680;23.364;2022-08-05T03:33:46;95286.91;;;18.78;77.82
5691;BME280;2870;42.680;23.364;2022-08-05T03:36:13;95285.38;;;18.77;77.38
5691;BME280;2870;42.680;23.364;2022-08-05T03:38:41;95286.41;;;18.82;79.19
5691;BME280;2870;42.680;23.364;2022-08-05T03:41:08;95272.19;;;18.82;79.38
5691;BME280;2870;42.680;23.364;2022-08-05T03:43:35;95286.66;;;18.86;78.70
5691;BME280;2870;42.680;23.364;2022-08-05T03:46:02;95290.25;;;18.86;79.96
5691;BME280;2870;42.680;23.364;2022-08-05T03:48:29;95286.19;;;18.89;79.69
5691;BME280;2870;42.680;23.364;2022-08-05T03:51:02;95267.81;;;18.69;79.90
5691;BME280;2870;42.680;23.364;2022-08-05T03:53:33;95297.41;;;18.87;77.99
5691;BME280;2870;42.680;23.364;2022-08-05T03:56:06;95293.59;;;18.94;77.81
5691;BME280;2870;42.680;23.364;2022-08-05T03:58:37;95293.47;;;18.92;77.63
5691;BME280;2870;42.680;23.364;2022-08-05T04:01:06;95292.00;;;18.91;77.45
5691;BME280;2870;42.680;23.364;2022-08-05T04:03:36;95290.63;;;18.92;77.65
5691;BME280;2870;42.680;23.364;2022-08-05T04:06:05;95287.31;;;18.96;77.69
5691;BME280;2870;42.680;23.364;2022-08-05T04:08:32;95296.88;;;19.00;76.73
5691;BME280;2870;42.680;23.364;2022-08-05T04:11:00;95292.50;;;18.99;75.91
5691;BME280;2870;42.680;23.364;2022-08-05T04:13:29;95279.75;;;18.89;77.17
5691;BME280;2870;42.680;23.364;2022-08-05T04:15:56;95291.72;;;18.87;74.97
5691;BME280;2870;42.680;23.364;2022-08-05T04:18:24;95298.81;;;18.98;75.51
5691;BME280;2870;42.680;23.364;2022-08-05T04:20:54;95280.66;;;19.03;74.35
5691;BME280;2870;42.680;23.364;2022-08-05T04:23:22;95288.22;;;19.10;74.89
5691;BME280;2870;42.680;23.364;2022-08-05T04:25:50;95289.69;;;19.11;75.18
5691;BME280;2870;42.680;23.364;2022-08-05T04:28:17;95280.44;;;19.11;75.69
5691;BME280;2870;42.680;23.364;2022-08-05T04:30:47;95285.00;;;19.16;74.32
5691;BME280;2870;42.680;23.364;2022-08-05T04:33:15;95285.16;;;19.18;75.39
5691;BME280;2870;42.680;23.364;2022-08-05T04:35:42;95283.81;;;19.19;74.40
5691;BME280;2870;42.680;23.364;2022-08-05T04:38:09;95282.81;;;19.26;75.46
5691;BME280;2870;42.680;23.364;2022-08-05T04:40:37;95280.47;;;19.34;75.35
5691;BME280;2870;42.680;23.364;2022-08-05T04:43:05;95283.06;;;19.30;75.86
5691;BME280;2870;42.680;23.364;2022-08-05T04:45:32;95284.47;;;19.41;76.20
5691;BME280;2870;42.680;23.364;2022-08-05T04:48:04;95275.41;;;19.44;75.60
5691;BME280;2870;42.680;23.364;2022-08-05T04:50:39;95281.38;;;19.48;74.30
5691;BME280;2870;42.680;23.364;2022-08-05T04:53:06;95280.03;;;19.61;74.89
5691;BME280;2870;42.680;23.364;2022-08-05T04:55:33;95292.78;;;19.83;74.40
5691;BME280;2870;42.680;23.364;2022-08-05T04:58:00;95288.06;;;20.00;72.85
5691;BME280;2870;42.680;23.364;2022-08-05T05:00:27;95291.41;;;20.08;71.06
5691;BME280;2870;42.680;23.364;2022-08-05T05:02:54;95289.94;;;19.95;72.00
5691;BME280;2870;42.680;23.364;2022-08-05T05:05:22;95281.16;;;20.03;71.57
5691;BME280;2870;42.680;23.364;2022-08-05T05:07:49;95281.00;;;20.12;68.71
5691;BME280;2870;42.680;23.364;2022-08-05T05:10:16;95285.34;;;19.78;68.94
5691;BME280;2870;42.680;23.364;2022-08-05T05:12:43;95285.13;;;19.74;69.50
5691;BME280;2870;42.680;23.364;2022-08-05T05:15:09;95278.53;;;19.95;68.85
5691;BME280;2870;42.680;23.364;2022-08-05T05:17:38;95286.09;;;20.14;69.66
5691;BME280;2870;42.680;23.364;2022-08-05T05:20:05;95269.94;;;20.30;68.94
5691;BME280;2870;42.680;23.364;2022-08-05T05:22:34;95286.34;;;20.06;69.06
5691;BME280;2870;42.680;23.364;2022-08-05T05:25:01;95283.25;;;20.14;69.09
5691;BME280;2870;42.680;23.364;2022-08-05T05:27:29;95277.16;;;20.20;68.63
5691;BME280;2870;42.680;23.364;2022-08-05T05:29:56;95290.03;;;20.21;67.63
5691;BME280;2870;42.680;23.364;2022-08-05T05:32:23;95268.22;;;20.37;67.72
5691;BME280;2870;42.680;23.364;2022-08-05T05:34:50;95279.00;;;20.76;69.52
5691;BME280;2870;42.680;23.364;2022-08-05T05:37:17;95271.34;;;20.67;67.35
5691;BME280;2870;42.680;23.364;2022-08-05T05:39:45;95270.53;;;20.52;67.04
5691;BME280;2870;42.680;23.364;2022-08-05T05:42:11;95270.28;;;21.11;66.07
5691;BME280;2870;42.680;23.364;2022-08-05T05:44:38;95282.72;;;21.29;66.42
5691;BME280;2870;42.680;23.364;2022-08-05T05:47:05;95282.03;;;21.17;65.25
5691;BME280;2870;42.680;23.364;2022-08-05T05:49:32;95284.03;;;21.40;68.26
5691;BME280;2870;42.680;23.364;2022-08-05T05:51:59;95279.97;;;21.70;64.98
5691;BME280;2870;42.680;23.364;2022-08-05T05:54:25;95278.56;;;21.58;63.70
5691;BME280;2870;42.680;23.364;2022-08-05T05:56:54;95276.78;;;21.64;63.41
5691;BME280;2870;42.680;23.364;2022-08-05T05:59:20;95278.50;;;21.97;63.76
5691;BME280;2870;42.680;23.364;2022-08-05T06:01:48;95279.34;;;22.00;64.38
5691;BME280;2870;42.680;23.364;2022-08-05T06:04:15;95281.78;;;22.05;64.03
5691;BME280;2870;42.680;23.364;2022-08-05T06:06:43;95279.38;;;22.27;64.73
5691;BME280;2870;42.680;23.364;2022-08-05T06:09:10;95288.25;;;22.47;64.29
5691;BME280;2870;42.680;23.364;2022-08-05T06:11:37;95282.63;;;22.08;64.81
5691;BME280;2870;42.680;23.364;2022-08-05T06:14:05;95283.63;;;22.12;64.48
5691;BME280;2870;42.680;23.364;2022-08-05T06:16:32;95297.03;;;22.37;65.82
5691;BME280;2870;42.680;23.364;2022-08-05T06:18:59;95291.59;;;22.71;63.15
5691;BME280;2870;42.680;23.364;2022-08-05T06:21:25;95285.44;;;22.77;64.49
5691;BME280;2870;42.680;23.364;2022-08-05T06:23:53;95288.66;;;22.55;62.78
5691;BME280;2870;42.680;23.364;2022-08-05T06:26:19;95286.66;;;22.58;62.12
5691;BME280;2870;42.680;23.364;2022-08-05T06:28:46;95291.16;;;22.63;63.15
5691;BME280;2870;42.680;23.364;2022-08-05T06:31:14;95294.84;;;22.79;62.76
5691;BME280;2870;42.680;23.364;2022-08-05T06:33:41;95287.63;;;22.78;63.88
5691;BME280;2870;42.680;23.364;2022-08-05T06:36:08;95289.72;;;22.91;62.85
5691;BME280;2870;42.680;23.364;2022-08-05T06:38:35;95278.75;;;23.15;61.74
5691;BME280;2870;42.680;23.364;2022-08-05T06:41:02;95274.84;;;23.09;60.90
5691;BME280;2870;42.680;23.364;2022-08-05T06:43:29;95284.38;;;23.13;58.96
5691;BME280;2870;42.680;23.364;2022-08-05T06:45:56;95285.06;;;22.98;60.66
5691;BME280;2870;42.680;23.364;2022-08-05T06:48:24;95284.81;;;23.08;61.05
5691;BME280;2870;42.680;23.364;2022-08-05T06:50:52;95283.13;;;23.32;59.95
5691;BME280;2870;42.680;23.364;2022-08-05T06:53:19;95276.72;;;23.18;60.03
5691;BME280;2870;42.680;23.364;2022-08-05T06:55:45;95277.59;;;23.52;58.87
5691;BME280;2870;42.680;23.364;2022-08-05T06:58:12;95284.38;;;23.74;59.19
5691;BME280;2870;42.680;23.364;2022-08-05T07:00:39;95284.53;;;23.47;59.43
5691;BME280;2870;42.680;23.364;2022-08-05T07:03:06;95281.72;;;23.78;59.58
5691;BME280;2870;42.680;23.364;2022-08-05T07:05:34;95281.94;;;24.16;57.11
5691;BME280;2870;42.680;23.364;2022-08-05T07:08:00;95283.31;;;24.31;58.35
5691;BME280;2870;42.680;23.364;2022-08-05T07:10:27;95273.75;;;24.09;56.85
5691;BME280;2870;42.680;23.364;2022-08-05T07:12:54;95276.59;;;24.09;57.38
5691;BME280;2870;42.680;23.364;2022-08-05T07:15:38;95276.88;;;24.64;56.49
5691;BME280;2870;42.680;23.364;2022-08-05T07:18:22;95291.06;;;24.96;56.60
5691;BME280;2870;42.680;23.364;2022-08-05T07:20:51;95282.50;;;25.31;54.63
5691;BME280;2870;42.680;23.364;2022-08-05T07:23:18;95281.75;;;25.49;52.60
5691;BME280;2870;42.680;23.364;2022-08-05T07:25:45;95284.16;;;25.36;53.00
5691;BME280;2870;42.680;23.364;2022-08-05T07:28:11;95282.41;;;25.29;52.08
5691;BME280;2870;42.680;23.364;2022-08-05T07:30:38;95276.41;;;25.59;51.02
5691;BME280;2870;42.680;23.364;2022-08-05T07:33:06;95282.00;;;25.55;51.13
5691;BME280;2870;42.680;23.364;2022-08-05T07:35:33;95274.69;;;25.89;52.22
5691;BME280;2870;42.680;23.364;2022-08-05T07:38:02;95275.47;;;26.10;49.17
5691;BME280;2870;42.680;23.364;2022-08-05T07:40:28;95280.59;;;26.33;49.14
5691;BME280;2870;42.680;23.364;2022-08-05T07:42:55;95276.09;;;25.88;49.74
5691;BME280;2870;42.680;23.364;2022-08-05T07:45:22;95277.66;;;26.31;49.18
5691;BME280;2870;42.680;23.364;2022-08-05T07:47:50;95279.78;;;26.92;49.11
5691;BME280;2870;42.680;23.364;2022-08-05T07:50:17;95272.44;;;27.55;43.75
5691;BME280;2870;42.680;23.364;2022-08-05T07:52:44;95275.63;;;27.41;45.27
5691;BME280;2870;42.680;23.364;2022-08-05T07:55:13;95266.56;;;27.51;45.48
5691;BME280;2870;42.680;23.364;2022-08-05T07:57:40;95272.31;;;27.51;44.25
5691;BME280;2870;42.680;23.364;2022-08-05T08:00:07;95276.78;;;28.54;44.87
5691;BME280;2870;42.680;23.364;2022-08-05T08:02:34;95281.69;;;29.03;41.60
5691;BME280;2870;42.680;23.364;2022-08-05T08:05:01;95280.00;;;29.22;43.88
5691;BME280;2870;42.680;23.364;2022-08-05T08:07:28;95282.59;;;29.70;42.75
5691;BME280;2870;42.680;23.364;2022-08-05T08:09:55;95276.75;;;29.38;41.76
5691;BME280;2870;42.680;23.364;2022-08-05T08:12:23;95261.31;;;29.55;42.12
5691;BME280;2870;42.680;23.364;2022-08-05T08:14:50;95277.09;;;30.17;43.50
5691;BME280;2870;42.680;23.364;2022-08-05T08:17:18;95272.56;;;30.80;39.29
5691;BME280;2870;42.680;23.364;2022-08-05T08:19:44;95278.22;;;30.72;39.72
5691;BME280;2870;42.680;23.364;2022-08-05T08:22:11;95273.00;;;30.28;42.86
5691;BME280;2870;42.680;23.364;2022-08-05T08:24:38;95276.22;;;31.69;38.23
5691;BME280;2870;42.680;23.364;2022-08-05T08:27:05;95279.47;;;31.91;37.55
5691;BME280;2870;42.680;23.364;2022-08-05T08:29:33;95279.81;;;31.65;37.53
5691;BME280;2870;42.680;23.364;2022-08-05T08:32:00;95274.69;;;31.20;37.47
5691;BME280;2870;42.680;23.364;2022-08-05T08:34:27;95264.38;;;32.03;36.52
5691;BME280;2870;42.680;23.364;2022-08-05T08:36:53;95269.84;;;30.90;36.68
5691;BME280;2870;42.680;23.364;2022-08-05T08:39:20;95267.22;;;31.04;37.64
5691;BME280;2870;42.680;23.364;2022-08-05T08:41:50;95268.03;;;31.11;38.77
5691;BME280;2870;42.680;23.364;2022-08-05T08:44:19;95262.78;;;31.01;38.79
5691;BME280;2870;42.680;23.364;2022-08-05T08:46:47;95263.44;;;31.38;36.49
5691;BME280;2870;42.680;23.364;2022-08-05T08:49:15;95265.59;;;31.84;37.13
5691;BME280;2870;42.680;23.364;2022-08-05T08:51:47;95265.31;;;32.81;35.26
5691;BME280;2870;42.680;23.364;2022-08-05T08:54:14;95264.78;;;32.96;36.03
5691;BME280;2870;42.680;23.364;2022-08-05T08:56:41;95262.88;;;33.32;32.07
5691;BME280;2870;42.680;23.364;2022-08-05T08:59:08;95259.97;;;32.57;34.64
5691;BME280;2870;42.680;23.364;2022-08-05T09:01:36;95254.66;;;32.37;34.47
5691;BME280;2870;42.680;23.364;2022-08-05T09:04:05;95251.88;;;32.45;33.26
5691;BME280;2870;42.680;23.364;2022-08-05T09:06:33;95246.97;;;32.01;34.23
5691;BME280;2870;42.680;23.364;2022-08-05T09:09:00;95241.91;;;32.66;37.42
5691;BME280;2870;42.680;23.364;2022-08-05T09:11:27;95233.25;;;32.70;33.69
5691;BME280;2870;42.680;23.364;2022-08-05T09:13:54;95237.09;;;32.25;33.14
5691;BME280;2870;42.680;23.364;2022-08-05T09:16:21;95231.50;;;33.18;35.33
5691;BME280;2870;42.680;23.364;2022-08-05T09:18:48;95221.38;;;32.46;32.27
5691;BME280;2870;42.680;23.364;2022-08-05T09:21:17;95226.88;;;32.19;35.29
5691;BME280;2870;42.680;23.364;2022-08-05T09:23:44;95218.97;;;32.93;32.12
5691;BME280;2870;42.680;23.364;2022-08-05T09:26:13;95202.41;;;33.10;32.11
5691;BME280;2870;42.680;23.364;2022-08-05T09:28:42;95219.00;;;33.98;29.78
5691;BME280;2870;42.680;23.364;2022-08-05T09:31:10;95211.50;;;33.63;29.42
5691;BME280;2870;42.680;23.364;2022-08-05T09:33:47;95217.81;;;34.85;29.26
5691;BME280;2870;42.680;23.364;2022-08-05T09:36:16;95219.97;;;34.66;28.30
5691;BME280;2870;42.680;23.364;2022-08-05T09:38:56;95209.69;;;34.33;30.09
5691;BME280;2870;42.680;23.364;2022-08-05T09:41:24;95205.47;;;35.11;27.70
5691;BME280;2870;42.680;23.364;2022-08-05T09:43:51;95201.81;;;35.25;26.76
5691;BME280;2870;42.680;23.364;2022-08-05T09:46:25;95195.25;;;34.98;29.48
5691;BME280;2870;42.680;23.364;2022-08-05T09:48:52;95201.09;;;35.22;27.95
5691;BME280;2870;42.680;23.364;2022-08-05T09:51:32;95195.97;;;35.37;28.22
5691;BME280;2870;42.680;23.364;2022-08-05T09:54:00;95189.31;;;34.43;29.38
5691;BME280;2870;42.680;23.364;2022-08-05T09:56:30;95189.28;;;34.35;31.77
5691;BME280;2870;42.680;23.364;2022-08-05T09:59:00;95185.00;;;34.56;30.16
5691;BME280;2870;42.680;23.364;2022-08-05T10:01:28;95187.97;;;35.27;27.66
5691;BME280;2870;42.680;23.364;2022-08-05T10:03:59;95189.41;;;34.88;31.40
5691;BME280;2870;42.680;23.364;2022-08-05T10:06:30;95184.84;;;34.11;27.40
5691;BME280;2870;42.680;23.364;2022-08-05T10:09:09;95183.69;;;33.37;29.73
5691;BME280;2870;42.680;23.364;2022-08-05T10:11:36;95180.38;;;33.92;30.17
5691;BME280;2870;42.680;23.364;2022-08-05T10:14:21;95177.78;;;34.96;26.54
5691;BME280;2870;42.680;23.364;2022-08-05T10:16:49;95180.66;;;35.59;29.41
5691;BME280;2870;42.680;23.364;2022-08-05T10:19:16;95175.41;;;36.06;26.71
5691;BME280;2870;42.680;23.364;2022-08-05T10:21:45;95171.19;;;35.52;26.18
5691;BME280;2870;42.680;23.364;2022-08-05T10:24:14;95146.25;;;34.09;28.79
5691;BME280;2870;42.680;23.364;2022-08-05T10:26:43;95167.53;;;34.56;28.54
5691;BME280;2870;42.680;23.364;2022-08-05T10:29:11;95164.59;;;34.46;28.32
5691;BME280;2870;42.680;23.364;2022-08-05T10:31:37;95168.19;;;35.73;26.32
5691;BME280;2870;42.680;23.364;2022-08-05T10:34:05;95155.88;;;34.80;28.84
5691;BME280;2870;42.680;23.364;2022-08-05T10:36:33;95161.00;;;35.25;29.00
5691;BME280;2870;42.680;23.364;2022-08-05T10:39:04;95163.19;;;35.18;30.07
5691;BME280;2870;42.680;23.364;2022-08-05T10:41:35;95156.59;;;35.38;28.92
5691;BME280;2870;42.680;23.364;2022-08-05T10:44:06;95151.84;;;36.53;25.79
5691;BME280;2870;42.680;23.364;2022-08-05T10:46:45;95162.72;;;36.63;25.47
5691;BME280;2870;42.680;23.364;2022-08-05T10:49:12;95147.19;;;34.97;27.64
5691;BME280;2870;42.680;23.364;2022-08-05T10:51:44;95145.63;;;35.65;26.84
5691;BME280;2870;42.680;23.364;2022-08-05T10:54:13;95144.78;;;36.01;27.41
5691;BME280;2870;42.680;23.364;2022-08-05T10:56:45;95144.91;;;35.61;27.50
5691;BME280;2870;42.680;23.364;2022-08-05T10:59:16;95144.19;;;35.60;26.39
5691;BME280;2870;42.680;23.364;2022-08-05T11:01:44;95141.13;;;36.01;26.12
5691;BME280;2870;42.680;23.364;2022-08-05T11:04:13;95132.53;;;35.42;28.22
5691;BME280;2870;42.680;23.364;2022-08-05T11:07:04;95132.59;;;34.85;29.38
5691;BME280;2870;42.680;23.364;2022-08-05T11:09:42;95109.19;;;34.23;27.77
5691;BME280;2870;42.680;23.364;2022-08-05T11:12:42;95134.03;;;34.45;26.74
5691;BME280;2870;42.680;23.364;2022-08-05T11:15:19;95125.78;;;33.80;27.92
5691;BME280;2870;42.680;23.364;2022-08-05T11:17:47;95125.34;;;33.05;28.15
5691;BME280;2870;42.680;23.364;2022-08-05T11:20:36;95123.03;;;32.89;30.60
5691;BME280;2870;42.680;23.364;2022-08-05T11:23:25;95116.97;;;33.64;27.79
5691;BME280;2870;42.680;23.364;2022-08-05T11:26:07;95117.13;;;32.79;28.43
5691;BME280;2870;42.680;23.364;2022-08-05T11:28:45;95123.28;;;33.23;29.11
5691;BME280;2870;42.680;23.364;2022-08-05T11:31:29;95108.78;;;33.30;29.77
5691;BME280;2870;42.680;23.364;2022-08-05T11:34:05;95103.09;;;33.48;29.95
5691;BME280;2870;42.680;23.364;2022-08-05T11:36:46;95109.03;;;33.70;29.57
5691;BME280;2870;42.680;23.364;2022-08-05T11:39:16;95101.41;;;33.12;28.75
5691;BME280;2870;42.680;23.364;2022-08-05T11:42:05;95101.47;;;33.20;29.81
5691;BME280;2870;42.680;23.364;2022-08-05T11:44:36;95097.00;;;33.05;29.33
5691;BME280;2870;42.680;23.364;2022-08-05T11:47:04;95097.03;;;33.09;30.10
5691;BME280;2870;42.680;23.364;2022-08-05T11:49:32;95088.34;;;33.11;30.36
5691;BME280;2870;42.680;23.364;2022-08-05T11:51:59;95094.31;;;33.38;29.68
5691;BME280;2870;42.680;23.364;2022-08-05T11:54:27;95100.66;;;33.06;29.49
5691;BME280;2870;42.680;23.364;2022-08-05T11:56:57;95096.09;;;32.80;29.56
5691;BME280;2870;42.680;23.364;2022-08-05T11:59:27;95099.00;;;32.84;30.30
5691;BME280;2870;42.680;23.364;2022-08-05T12:01:55;95088.47;;;32.38;30.57
5691;BME280;2870;42.680;23.364;2022-08-05T12:04:24;95091.97;;;32.25;30.55
5691;BME280;2870;42.680;23.364;2022-08-05T12:06:51;95085.13;;;32.70;30.12
5691;BME280;2870;42.680;23.364;2022-08-05T12:09:22;95062.72;;;32.87;29.28
5691;BME280;2870;42.680;23.364;2022-08-05T12:11:51;95088.22;;;32.91;29.08
5691;BME280;2870;42.680;23.364;2022-08-05T12:14:18;95069.28;;;32.86;28.72
5691;BME280;2870;42.680;23.364;2022-08-05T12:16:46;95078.25;;;33.25;30.29
5691;BME280;2870;42.680;23.364;2022-08-05T12:19:15;95077.53;;;33.28;28.00
5691;BME280;2870;42.680;23.364;2022-08-05T12:21:44;95077.53;;;33.28;29.02
5691;BME280;2870;42.680;23.364;2022-08-05T12:24:13;95071.16;;;33.62;29.10
5691;BME280;2870;42.680;23.364;2022-08-05T12:26:42;95077.03;;;33.70;28.51
5691;BME280;2870;42.680;23.364;2022-08-05T12:29:11;95066.75;;;33.49;28.71
5691;BME280;2870;42.680;23.364;2022-08-05T12:31:39;95067.22;;;33.07;31.49
5691;BME280;2870;42.680;23.364;2022-08-05T12:34:08;95048.09;;;32.69;30.38
5691;BME280;2870;42.680;23.364;2022-08-05T12:36:35;95066.06;;;33.63;29.36
5691;BME280;2870;42.680;23.364;2022-08-05T12:39:04;95061.72;;;33.64;29.88
5691;BME280;2870;42.680;23.364;2022-08-05T12:41:32;95063.00;;;33.26;29.86
5691;BME280;2870;42.680;23.364;2022-08-05T12:44:00;95065.06;;;33.07;30.92
5691;BME280;2870;42.680;23.364;2022-08-05T12:46:29;95048.97;;;32.90;30.77
5691;BME280;2870;42.680;23.364;2022-08-05T12:48:58;95050.47;;;32.97;29.74
5691;BME280;2870;42.680;23.364;2022-08-05T12:51:27;95047.31;;;32.64;30.02
5691;BME280;2870;42.680;23.364;2022-08-05T12:53:59;95045.84;;;32.57;29.90
5691;BME280;2870;42.680;23.364;2022-08-05T12:56:28;95038.59;;;32.60;30.93
5691;BME280;2870;42.680;23.364;2022-08-05T12:59:14;95048.66;;;32.47;31.31
5691;BME280;2870;42.680;23.364;2022-08-05T13:01:41;95044.13;;;32.30;31.93
5691;BME280;2870;42.680;23.364;2022-08-05T13:04:09;95032.38;;;32.11;30.10
5691;BME280;2870;42.680;23.364;2022-08-05T13:06:39;95039.56;;;32.06;30.07
5691;BME280;2870;42.680;23.364;2022-08-05T13:09:07;95034.72;;;31.60;30.36
5691;BME280;2870;42.680;23.364;2022-08-05T13:11:38;95038.59;;;31.81;30.41
5691;BME280;2870;42.680;23.364;2022-08-05T13:14:17;95038.13;;;32.09;29.90
5691;BME280;2870;42.680;23.364;2022-08-05T13:16:50;95029.41;;;32.05;29.92
5691;BME280;2870;42.680;23.364;2022-08-05T13:19:20;95020.72;;;32.05;30.36
5691;BME280;2870;42.680;23.364;2022-08-05T13:21:48;95029.38;;;32.03;30.75
5691;BME280;2870;42.680;23.364;2022-08-05T13:24:16;95027.97;;;32.10;29.86